Allen Army Airfield
PABI : now visible

Airfield :











YOU CAN JOIN US ON...

 
LOGIN :

Register | Disclaimer

   EN    FR    IT 

 









Legend :    VFR   Marginal VFR   IFR   Intensive IFR   Very Intensive IFR
Visi :
Ceiling :
>= 8 km
>= 3000ft
5 to 8 km
1000 to 3000 ft
1500m to 5 km
500 to 1000 ft
800 to 1500m
200 to 500 ft
< 800m
< 200 ft
Symbols :   Thunderstorms  Fog  Heavy snow  Heavy precipitations  Wind > 20 kt






- Airport Elevation : 1291 ft
- IATA code : BIG


PABI - Allen Army

CURRENT METAR :
  • 220053Z 29003KT 10SM SCT060 OVC100 M19/M23 A2948 RMK AO2 SLP042 T11941228

EXPIRED METARs :
  • 212353Z 27003KT 10SM SCT060 OVC110 M19/M23 A2948 RMK AO2 SLP040 T11941228 11194 21228 58005
  • 212253Z 00000KT 10SM SCT060 BKN120 BKN190 M20/M24 A2948 RMK AO2 SLP042 T12001239 $

TAF TAF PABI
Valid from the 21 at 22:00 until the 23 at 04:00 UTC


212200Z 2122/2304 VRB06KT 9999 SCT040 SCT080 QNH2946INS
BECMG 2212/2213 VRB06KT 6000 -SN SCT020 BKN030 620304 QNH2950INS
BECMG 2302/2303 VRB06KT 9999 NSW SCT017 BKN025 610256 QNH2952INS TXM15/2202Z TNM24/2210Z FOR MIL USE ONLY



MET'MAP, your aeronautical weather chart ! - Copyright ORBIFLY December 2007 - Disclaimer

ORBIFLY MET'MAP TEAM :

Programming & Development : Alexandra Zaïnal
Concept & original design : Baudouin d'Aumeries
Assistance for programming : Marc-Olivier Méhu
Technical & hardware support : Manuel Goepfert

Contact : metmap@orbifly.com




SOURCES & CREDITS :

   NOAA       Earth
Advisory